sensor_id;sensor_type;location;lat;lon;timestamp;pressure;altitude;pressure_sealevel;temperature;humidity
8039;BME280;4062;49.844;8.120;2023-12-14T00:01:20;98252.28;;;14.28;56.88
8039;BME280;4062;49.844;8.120;2023-12-14T00:03:21;98254.09;;;14.28;56.82
8039;BME280;4062;49.844;8.120;2023-12-14T00:05:22;98261.13;;;14.29;57.02
8039;BME280;4062;49.844;8.120;2023-12-14T00:07:24;98265.56;;;14.28;57.06
8039;BME280;4062;49.844;8.120;2023-12-14T00:09:25;98269.09;;;14.29;57.00
8039;BME280;4062;49.844;8.120;2023-12-14T00:11:27;98270.88;;;14.28;56.86
8039;BME280;4062;49.844;8.120;2023-12-14T00:13:28;98271.75;;;14.29;56.99
8039;BME280;4062;49.844;8.120;2023-12-14T00:15:29;98277.06;;;14.29;56.93
8039;BME280;4062;49.844;8.120;2023-12-14T00:17:31;98280.66;;;14.28;56.93
8039;BME280;4062;49.844;8.120;2023-12-14T00:19:33;98284.16;;;14.28;56.87
8039;BME280;4062;49.844;8.120;2023-12-14T00:21:34;98287.69;;;14.29;57.01
8039;BME280;4062;49.844;8.120;2023-12-14T00:23:37;98293.00;;;14.29;57.01
8039;BME280;4062;49.844;8.120;2023-12-14T00:25:38;98292.13;;;14.28;56.94
8039;BME280;4062;49.844;8.120;2023-12-14T00:27:39;98298.31;;;14.29;56.87
8039;BME280;4062;49.844;8.120;2023-12-14T00:29:41;98293.84;;;14.29;56.85
8039;BME280;4062;49.844;8.120;2023-12-14T00:31:42;98290.34;;;14.29;56.87
8039;BME280;4062;49.844;8.120;2023-12-14T00:33:44;98297.44;;;14.28;56.86
8039;BME280;4062;49.844;8.120;2023-12-14T00:35:46;98296.59;;;14.28;56.95
8039;BME280;4062;49.844;8.120;2023-12-14T00:37:47;98298.41;;;14.27;56.86
8039;BME280;4062;49.844;8.120;2023-12-14T00:39:48;98295.66;;;14.29;56.97
8039;BME280;4062;49.844;8.120;2023-12-14T00:41:50;98310.72;;;14.28;56.90
8039;BME280;4062;49.844;8.120;2023-12-14T00:43:51;98311.59;;;14.29;56.92
8039;BME280;4062;49.844;8.120;2023-12-14T00:45:52;98331.91;;;14.30;56.94
8039;BME280;4062;49.844;8.120;2023-12-14T00:47:54;98328.47;;;14.28;56.97
8039;BME280;4062;49.844;8.120;2023-12-14T00:49:55;98332.84;;;14.29;56.99
8039;BME280;4062;49.844;8.120;2023-12-14T00:51:56;98332.84;;;14.29;56.95
8039;BME280;4062;49.844;8.120;2023-12-14T00:53:59;98328.47;;;14.28;56.82
8039;BME280;4062;49.844;8.120;2023-12-14T00:56:01;98331.97;;;14.28;57.00
8039;BME280;4062;49.844;8.120;2023-12-14T00:58:03;98332.84;;;14.29;57.03
8039;BME280;4062;49.844;8.120;2023-12-14T01:00:05;98339.94;;;14.28;56.90
8039;BME280;4062;49.844;8.120;2023-12-14T01:02:06;98350.56;;;14.28;56.97
8039;BME280;4062;49.844;8.120;2023-12-14T01:04:08;98348.88;;;14.27;56.88
8039;BME280;4062;49.844;8.120;2023-12-14T01:06:09;98349.72;;;14.28;56.88
8039;BME280;4062;49.844;8.120;2023-12-14T01:08:11;98361.19;;;14.28;56.93
8039;BME280;4062;49.844;8.120;2023-12-14T01:10:12;98366.50;;;14.28;56.96
8039;BME280;4062;49.844;8.120;2023-12-14T01:12:13;98372.69;;;14.29;57.02
8039;BME280;4062;49.844;8.120;2023-12-14T01:14:15;98377.13;;;14.28;56.82
8039;BME280;4062;49.844;8.120;2023-12-14T01:16:16;98381.50;;;14.29;56.93
8039;BME280;4062;49.844;8.120;2023-12-14T01:18:18;98381.59;;;14.28;56.80
8039;BME280;4062;49.844;8.120;2023-12-14T01:20:20;98387.75;;;14.28;56.84
8039;BME280;4062;49.844;8.120;2023-12-14T01:22:21;98390.53;;;14.27;56.91
8039;BME280;4062;49.844;8.120;2023-12-14T01:24:23;98395.75;;;14.28;56.93
8039;BME280;4062;49.844;8.120;2023-12-14T01:26:25;98396.72;;;14.27;57.01
8039;BME280;4062;49.844;8.120;2023-12-14T01:28:26;98396.72;;;14.27;56.83
8039;BME280;4062;49.844;8.120;2023-12-14T01:30:27;98397.56;;;14.28;56.93
8039;BME280;4062;49.844;8.120;2023-12-14T01:32:29;98402.03;;;14.27;56.96
8039;BME280;4062;49.844;8.120;2023-12-14T01:34:30;98410.84;;;14.28;56.94
8039;BME280;4062;49.844;8.120;2023-12-14T01:36:31;98415.31;;;14.27;56.98
8039;BME280;4062;49.844;8.120;2023-12-14T01:38:32;98413.50;;;14.28;56.93
8039;BME280;4062;49.844;8.120;2023-12-14T01:40:34;98418.81;;;14.28;56.87
8039;BME280;4062;49.844;8.120;2023-12-14T01:42:35;98425.94;;;14.27;56.94
8039;BME280;4062;49.844;8.120;2023-12-14T01:44:37;98423.28;;;14.27;56.98
8039;BME280;4062;49.844;8.120;2023-12-14T01:46:38;98428.59;;;14.27;56.93
8039;BME280;4062;49.844;8.120;2023-12-14T01:48:40;98428.59;;;14.27;56.98
8039;BME280;4062;49.844;8.120;2023-12-14T01:50:41;98428.59;;;14.27;57.01
8039;BME280;4062;49.844;8.120;2023-12-14T01:52:43;98435.59;;;14.28;56.99
8039;BME280;4062;49.844;8.120;2023-12-14T01:55:05;98437.41;;;14.28;56.83
8039;BME280;4062;49.844;8.120;2023-12-14T01:57:08;98442.72;;;14.28;56.96
8039;BME280;4062;49.844;8.120;2023-12-14T01:59:10;98442.72;;;14.28;56.97
8039;BME280;4062;49.844;8.120;2023-12-14T02:01:29;98444.53;;;14.27;56.84
8039;BME280;4062;49.844;8.120;2023-12-14T02:03:36;98451.53;;;14.28;56.97
8039;BME280;4062;49.844;8.120;2023-12-14T02:05:38;98451.53;;;14.28;56.89
8039;BME280;4062;49.844;8.120;2023-12-14T02:07:40;98453.34;;;14.28;56.93
8039;BME280;4062;49.844;8.120;2023-12-14T02:09:42;98455.16;;;14.27;56.97
8039;BME280;4062;49.844;8.120;2023-12-14T02:11:44;98460.47;;;14.27;56.91
8039;BME280;4062;49.844;8.120;2023-12-14T02:13:45;98456.00;;;14.28;56.92
8039;BME280;4062;49.844;8.120;2023-12-14T02:15:46;98465.78;;;14.27;56.96
8039;BME280;4062;49.844;8.120;2023-12-14T02:17:48;98470.22;;;14.27;56.98
8039;BME280;4062;49.844;8.120;2023-12-14T02:19:49;98469.38;;;14.26;57.00
8039;BME280;4062;49.844;8.120;2023-12-14T02:21:51;98477.34;;;14.26;56.98
8039;BME280;4062;49.844;8.120;2023-12-14T02:23:53;98487.03;;;14.27;56.95
8039;BME280;4062;49.844;8.120;2023-12-14T02:25:55;98494.13;;;14.27;56.90
8039;BME280;4062;49.844;8.120;2023-12-14T02:27:57;98487.03;;;14.27;56.94
8039;BME280;4062;49.844;8.120;2023-12-14T02:29:58;98490.63;;;14.26;56.85
8039;BME280;4062;49.844;8.120;2023-12-14T02:32:00;98491.47;;;14.27;56.96
8039;BME280;4062;49.844;8.120;2023-12-14T02:34:02;98497.66;;;14.27;56.98
8039;BME280;4062;49.844;8.120;2023-12-14T02:36:05;98499.44;;;14.27;57.01
8039;BME280;4062;49.844;8.120;2023-12-14T02:38:06;98508.31;;;14.27;56.97
8039;BME280;4062;49.844;8.120;2023-12-14T02:40:09;98510.06;;;14.27;56.98
8039;BME280;4062;49.844;8.120;2023-12-14T02:42:13;98510.97;;;14.27;57.00
8039;BME280;4062;49.844;8.120;2023-12-14T02:44:16;98513.63;;;14.27;56.95
8039;BME280;4062;49.844;8.120;2023-12-14T02:46:17;98516.28;;;14.27;57.02
8039;BME280;4062;49.844;8.120;2023-12-14T02:48:19;98514.47;;;14.28;56.93
8039;BME280;4062;49.844;8.120;2023-12-14T02:50:21;98516.28;;;14.27;57.00
8039;BME280;4062;49.844;8.120;2023-12-14T02:52:23;98515.41;;;14.27;56.89
8039;BME280;4062;49.844;8.120;2023-12-14T02:54:25;98511.00;;;14.26;56.98
8039;BME280;4062;49.844;8.120;2023-12-14T02:56:26;98519.88;;;14.26;56.87
8039;BME280;4062;49.844;8.120;2023-12-14T02:58:27;98520.72;;;14.27;56.96
8039;BME280;4062;49.844;8.120;2023-12-14T03:00:29;98530.50;;;14.26;56.87
8039;BME280;4062;49.844;8.120;2023-12-14T03:02:31;98522.53;;;14.26;57.03
8039;BME280;4062;49.844;8.120;2023-12-14T03:04:33;98533.16;;;14.26;56.83
8039;BME280;4062;49.844;8.120;2023-12-14T03:06:36;98534.00;;;14.27;57.04
8039;BME280;4062;49.844;8.120;2023-12-14T03:08:37;98541.97;;;14.27;57.02
8039;BME280;4062;49.844;8.120;2023-12-14T03:10:39;98540.19;;;14.27;56.93
8039;BME280;4062;49.844;8.120;2023-12-14T03:12:41;98540.19;;;14.27;57.00
8039;BME280;4062;49.844;8.120;2023-12-14T03:14:43;98545.50;;;14.27;57.14
8039;BME280;4062;49.844;8.120;2023-12-14T03:16:45;98554.41;;;14.26;56.85
8039;BME280;4062;49.844;8.120;2023-12-14T03:18:46;98549.94;;;14.27;56.92
8039;BME280;4062;49.844;8.120;2023-12-14T03:20:50;98559.72;;;14.26;57.02
8039;BME280;4062;49.844;8.120;2023-12-14T03:22:55;98558.78;;;14.27;56.97
8039;BME280;4062;49.844;8.120;2023-12-14T03:24:57;98561.50;;;14.26;56.99
8039;BME280;4062;49.844;8.120;2023-12-14T03:26:59;98565.88;;;14.27;57.00
8039;BME280;4062;49.844;8.120;2023-12-14T03:29:02;98563.22;;;14.27;57.10
8039;BME280;4062;49.844;8.120;2023-12-14T03:31:04;98567.59;;;14.28;56.99
8039;BME280;4062;49.844;8.120;2023-12-14T03:33:06;98570.34;;;14.26;56.94
8039;BME280;4062;49.844;8.120;2023-12-14T03:35:09;98573.84;;;14.27;56.98
8039;BME280;4062;49.844;8.120;2023-12-14T03:37:11;98566.75;;;14.27;57.00
8039;BME280;4062;49.844;8.120;2023-12-14T03:39:12;98570.25;;;14.28;57.02
8039;BME280;4062;49.844;8.120;2023-12-14T03:41:17;98572.06;;;14.27;56.91
8039;BME280;4062;49.844;8.120;2023-12-14T03:43:18;98571.19;;;14.27;57.02
8039;BME280;4062;49.844;8.120;2023-12-14T03:45:21;98573.00;;;14.26;56.96
8039;BME280;4062;49.844;8.120;2023-12-14T03:47:23;98575.66;;;14.26;56.87
8039;BME280;4062;49.844;8.120;2023-12-14T03:49:25;98579.16;;;14.27;57.01
8039;BME280;4062;49.844;8.120;2023-12-14T03:51:28;98576.50;;;14.27;56.83
8039;BME280;4062;49.844;8.120;2023-12-14T03:53:29;98576.50;;;14.27;56.94
8039;BME280;4062;49.844;8.120;2023-12-14T03:55:30;98583.63;;;14.26;56.96
8039;BME280;4062;49.844;8.120;2023-12-14T03:57:32;98583.63;;;14.26;56.91
8039;BME280;4062;49.844;8.120;2023-12-14T03:59:33;98591.59;;;14.26;57.02
8039;BME280;4062;49.844;8.120;2023-12-14T04:01:35;98589.88;;;14.25;57.04
8039;BME280;4062;49.844;8.120;2023-12-14T04:03:39;98596.91;;;14.26;56.97
8039;BME280;4062;49.844;8.120;2023-12-14T04:05:41;98607.53;;;14.26;56.97
8039;BME280;4062;49.844;8.120;2023-12-14T04:07:43;98607.53;;;14.26;57.01
8039;BME280;4062;49.844;8.120;2023-12-14T04:09:45;98609.25;;;14.27;56.91
8039;BME280;4062;49.844;8.120;2023-12-14T04:11:46;98613.69;;;14.27;56.98
8039;BME280;4062;49.844;8.120;2023-12-14T04:13:49;98620.81;;;14.26;56.95
8039;BME280;4062;49.844;8.120;2023-12-14T04:15:52;98628.78;;;14.26;57.00
8039;BME280;4062;49.844;8.120;2023-12-14T04:17:53;98626.13;;;14.26;57.04
8039;BME280;4062;49.844;8.120;2023-12-14T04:19:55;98623.47;;;14.26;56.97
8039;BME280;4062;49.844;8.120;2023-12-14T04:21:57;98629.66;;;14.27;56.84
8039;BME280;4062;49.844;8.120;2023-12-14T04:23:58;98635.84;;;14.27;57.00
8039;BME280;4062;49.844;8.120;2023-12-14T04:26:00;98637.63;;;14.27;57.00
8039;BME280;4062;49.844;8.120;2023-12-14T04:28:01;98644.75;;;14.26;56.70
8039;BME280;4062;49.844;8.120;2023-12-14T04:30:03;98651.78;;;14.27;56.87
8039;BME280;4062;49.844;8.120;2023-12-14T04:32:06;98647.41;;;14.26;56.87
8039;BME280;4062;49.844;8.120;2023-12-14T04:34:08;98658.88;;;14.27;57.03
8039;BME280;4062;49.844;8.120;2023-12-14T04:36:13;98666.00;;;14.26;56.98
8039;BME280;4062;49.844;8.120;2023-12-14T04:38:14;98664.19;;;14.27;56.89
8039;BME280;4062;49.844;8.120;2023-12-14T04:40:15;98669.50;;;14.27;56.96
8039;BME280;4062;49.844;8.120;2023-12-14T04:42:17;98675.69;;;14.27;56.97
8039;BME280;4062;49.844;8.120;2023-12-14T04:44:19;98676.63;;;14.26;56.88
8039;BME280;4062;49.844;8.120;2023-12-14T04:46:20;98672.25;;;14.25;56.88
8039;BME280;4062;49.844;8.120;2023-12-14T04:48:22;98670.44;;;14.26;56.99
8039;BME280;4062;49.844;8.120;2023-12-14T04:50:23;98671.31;;;14.26;56.95
8039;BME280;4062;49.844;8.120;2023-12-14T04:52:25;98676.63;;;14.26;56.88
8039;BME280;4062;49.844;8.120;2023-12-14T04:54:26;98673.97;;;14.26;57.04
8039;BME280;4062;49.844;8.120;2023-12-14T04:56:28;98679.28;;;14.26;56.90
8039;BME280;4062;49.844;8.120;2023-12-14T04:58:31;98679.28;;;14.26;56.90
8039;BME280;4062;49.844;8.120;2023-12-14T05:00:32;98688.09;;;14.27;57.01
8039;BME280;4062;49.844;8.120;2023-12-14T05:02:33;98685.53;;;14.25;57.00
8039;BME280;4062;49.844;8.120;2023-12-14T05:04:35;98689.03;;;14.26;56.90
8039;BME280;4062;49.844;8.120;2023-12-14T05:06:37;98699.66;;;14.26;56.91
8039;BME280;4062;49.844;8.120;2023-12-14T05:08:39;98705.84;;;14.26;56.76
8039;BME280;4062;49.844;8.120;2023-12-14T05:10:41;98702.31;;;14.26;56.95
8039;BME280;4062;49.844;8.120;2023-12-14T05:12:43;98714.66;;;14.27;56.97
8039;BME280;4062;49.844;8.120;2023-12-14T05:14:47;98709.44;;;14.25;56.99
8039;BME280;4062;49.844;8.120;2023-12-14T05:16:48;98719.13;;;14.26;57.05
8039;BME280;4062;49.844;8.120;2023-12-14T05:18:50;98727.94;;;14.27;56.92
8039;BME280;4062;49.844;8.120;2023-12-14T05:20:53;98730.69;;;14.25;57.02
8039;BME280;4062;49.844;8.120;2023-12-14T05:22:54;98723.56;;;14.26;56.98
8039;BME280;4062;49.844;8.120;2023-12-14T05:24:56;98731.53;;;14.26;56.96
8039;BME280;4062;49.844;8.120;2023-12-14T05:26:57;98734.19;;;14.26;57.04
8039;BME280;4062;49.844;8.120;2023-12-14T05:29:00;98742.13;;;14.27;56.91
8039;BME280;4062;49.844;8.120;2023-12-14T05:31:03;98744.81;;;14.26;57.09
8039;BME280;4062;49.844;8.120;2023-12-14T05:33:05;98753.69;;;14.26;56.92
8039;BME280;4062;49.844;8.120;2023-12-14T05:35:08;98751.03;;;14.26;56.92
8039;BME280;4062;49.844;8.120;2023-12-14T05:37:10;98752.78;;;14.26;56.96
8039;BME280;4062;49.844;8.120;2023-12-14T05:39:14;98755.47;;;14.26;56.99
8039;BME280;4062;49.844;8.120;2023-12-14T05:41:17;98759.94;;;14.25;56.90
8039;BME280;4062;49.844;8.120;2023-12-14T05:43:18;98763.44;;;14.26;56.96
8039;BME280;4062;49.844;8.120;2023-12-14T05:45:19;98763.44;;;14.26;56.95
8039;BME280;4062;49.844;8.120;2023-12-14T05:47:21;98771.41;;;14.26;56.87
8039;BME280;4062;49.844;8.120;2023-12-14T05:49:22;98780.25;;;14.26;56.96
8039;BME280;4062;49.844;8.120;2023-12-14T05:51:30;98782.91;;;14.26;56.88
8039;BME280;4062;49.844;8.120;2023-12-14T05:53:33;98782.03;;;14.26;56.88
8039;BME280;4062;49.844;8.120;2023-12-14T05:55:42;98784.69;;;14.26;56.94
8039;BME280;4062;49.844;8.120;2023-12-14T05:57:43;98790.00;;;14.26;56.94
8039;BME280;4062;49.844;8.120;2023-12-14T05:59:44;98786.50;;;14.25;56.98
8039;BME280;4062;49.844;8.120;2023-12-14T06:01:46;98796.25;;;14.25;56.92
8039;BME280;4062;49.844;8.120;2023-12-14T06:03:48;98799.78;;;14.25;56.90
8039;BME280;4062;49.844;8.120;2023-12-14T06:05:50;98797.13;;;14.25;56.99
8039;BME280;4062;49.844;8.120;2023-12-14T06:07:51;98803.28;;;14.26;56.91
8039;BME280;4062;49.844;8.120;2023-12-14T06:09:53;98813.91;;;14.26;56.91
8039;BME280;4062;49.844;8.120;2023-12-14T06:11:54;98823.69;;;14.25;56.95
8039;BME280;4062;49.844;8.120;2023-12-14T06:13:56;98824.53;;;14.26;57.01
8039;BME280;4062;49.844;8.120;2023-12-14T06:15:57;98828.06;;;14.26;56.92
8039;BME280;4062;49.844;8.120;2023-12-14T06:18:00;98826.25;;;14.27;56.95
8039;BME280;4062;49.844;8.120;2023-12-14T06:20:02;98825.41;;;14.26;56.91
8039;BME280;4062;49.844;8.120;2023-12-14T06:22:05;98838.69;;;14.26;57.00
8039;BME280;4062;49.844;8.120;2023-12-14T06:24:06;98839.63;;;14.25;56.92
8039;BME280;4062;49.844;8.120;2023-12-14T06:26:07;98837.81;;;14.26;57.06
8039;BME280;4062;49.844;8.120;2023-12-14T06:28:09;98847.59;;;14.25;56.99
8039;BME280;4062;49.844;8.120;2023-12-14T06:30:11;98849.38;;;14.25;56.92
8039;BME280;4062;49.844;8.120;2023-12-14T06:32:13;98852.91;;;14.25;57.06
8039;BME280;4062;49.844;8.120;2023-12-14T06:34:14;98856.44;;;14.26;56.98
8039;BME280;4062;49.844;8.120;2023-12-14T06:36:19;98860.88;;;14.25;57.04
8039;BME280;4062;49.844;8.120;2023-12-14T06:38:21;98870.59;;;14.26;57.15
8039;BME280;4062;49.844;8.120;2023-12-14T06:40:22;98870.63;;;14.25;56.91
8039;BME280;4062;49.844;8.120;2023-12-14T06:42:24;98883.88;;;14.26;56.97
8039;BME280;4062;49.844;8.120;2023-12-14T06:44:28;98883.88;;;14.26;56.96
8039;BME280;4062;49.844;8.120;2023-12-14T06:46:31;98883.00;;;14.26;56.99
8039;BME280;4062;49.844;8.120;2023-12-14T06:48:33;98885.66;;;14.26;57.04
8039;BME280;4062;49.844;8.120;2023-12-14T06:50:34;98888.31;;;14.26;57.03
8039;BME280;4062;49.844;8.120;2023-12-14T06:52:38;98892.78;;;14.25;57.09
8039;BME280;4062;49.844;8.120;2023-12-14T06:54:40;98898.94;;;14.26;57.03
8039;BME280;4062;49.844;8.120;2023-12-14T06:56:41;98898.94;;;14.26;56.98
8039;BME280;4062;49.844;8.120;2023-12-14T06:58:44;98902.47;;;14.26;56.95
8039;BME280;4062;49.844;8.120;2023-12-14T07:00:46;98907.78;;;14.26;57.02
8039;BME280;4062;49.844;8.120;2023-12-14T07:02:48;98914.88;;;14.26;56.89
8039;BME280;4062;49.844;8.120;2023-12-14T07:04:50;98909.56;;;14.26;56.90
8039;BME280;4062;49.844;8.120;2023-12-14T07:06:52;98920.19;;;14.26;56.96
8039;BME280;4062;49.844;8.120;2023-12-14T07:08:54;98923.72;;;14.26;57.03
8039;BME280;4062;49.844;8.120;2023-12-14T07:10:55;98929.88;;;14.27;56.98
8039;BME280;4062;49.844;8.120;2023-12-14T07:12:57;98932.53;;;14.27;57.02
8039;BME280;4062;49.844;8.120;2023-12-14T07:14:58;98934.34;;;14.26;56.96
8039;BME280;4062;49.844;8.120;2023-12-14T07:17:00;98938.78;;;14.26;57.11
8039;BME280;4062;49.844;8.120;2023-12-14T07:19:01;98941.44;;;14.26;56.89
8039;BME280;4062;49.844;8.120;2023-12-14T07:21:03;98946.75;;;14.26;57.02
8039;BME280;4062;49.844;8.120;2023-12-14T07:23:05;98944.09;;;14.26;57.01
8039;BME280;4062;49.844;8.120;2023-12-14T07:25:08;98952.06;;;14.26;57.02
8039;BME280;4062;49.844;8.120;2023-12-14T07:27:09;98952.06;;;14.26;57.01
8039;BME280;4062;49.844;8.120;2023-12-14T07:29:11;98958.28;;;14.26;57.09
8039;BME280;4062;49.844;8.120;2023-12-14T07:31:12;98963.59;;;14.26;56.92
8039;BME280;4062;49.844;8.120;2023-12-14T07:33:14;98961.84;;;14.25;56.80
8039;BME280;4062;49.844;8.120;2023-12-14T07:35:16;98962.72;;;14.26;56.97
8039;BME280;4062;49.844;8.120;2023-12-14T07:37:18;98971.56;;;14.26;57.09
8039;BME280;4062;49.844;8.120;2023-12-14T07:39:19;98980.38;;;14.27;57.00
8039;BME280;4062;49.844;8.120;2023-12-14T07:41:21;98978.66;;;14.26;57.01
8039;BME280;4062;49.844;8.120;2023-12-14T07:43:27;98978.66;;;14.26;57.11
8039;BME280;4062;49.844;8.120;2023-12-14T07:45:29;98982.19;;;14.26;56.98
8039;BME280;4062;49.844;8.120;2023-12-14T07:47:30;98991.94;;;14.26;56.88
8039;BME280;4062;49.844;8.120;2023-12-14T07:49:32;98997.25;;;14.26;56.98
8039;BME280;4062;49.844;8.120;2023-12-14T07:51:33;98996.41;;;14.25;56.99
8039;BME280;4062;49.844;8.120;2023-12-14T07:53:34;99003.44;;;14.26;56.89
8039;BME280;4062;49.844;8.120;2023-12-14T07:55:36;99005.22;;;14.26;56.96
8039;BME280;4062;49.844;8.120;2023-12-14T07:57:37;99007.88;;;14.26;57.04
8039;BME280;4062;49.844;8.120;2023-12-14T07:59:39;99011.41;;;14.26;56.98
8039;BME280;4062;49.844;8.120;2023-12-14T08:01:41;99022.03;;;14.26;56.96
8039;BME280;4062;49.844;8.120;2023-12-14T08:03:42;99024.69;;;14.26;56.92
8039;BME280;4062;49.844;8.120;2023-12-14T08:05:44;99027.34;;;14.26;56.97
8039;BME280;4062;49.844;8.120;2023-12-14T08:07:46;99034.44;;;14.26;56.96
8039;BME280;4062;49.844;8.120;2023-12-14T08:09:49;99037.09;;;14.26;57.04
8039;BME280;4062;49.844;8.120;2023-12-14T08:11:50;99045.03;;;14.27;57.02
8039;BME280;4062;49.844;8.120;2023-12-14T08:13:53;99043.31;;;14.26;57.08
8039;BME280;4062;49.844;8.120;2023-12-14T08:15:55;99047.69;;;14.27;57.00
8039;BME280;4062;49.844;8.120;2023-12-14T08:17:56;99058.38;;;14.26;57.03
8039;BME280;4062;49.844;8.120;2023-12-14T08:19:58;99063.69;;;14.26;57.09
8039;BME280;4062;49.844;8.120;2023-12-14T08:21:59;99063.69;;;14.26;56.99
8039;BME280;4062;49.844;8.120;2023-12-14T08:24:01;99064.56;;;14.26;56.91
8039;BME280;4062;49.844;8.120;2023-12-14T08:26:03;99067.22;;;14.26;57.09
8039;BME280;4062;49.844;8.120;2023-12-14T08:28:05;99073.38;;;14.27;57.05
8039;BME280;4062;49.844;8.120;2023-12-14T08:30:07;99075.19;;;14.26;56.95
8039;BME280;4062;49.844;8.120;2023-12-14T08:32:09;99081.34;;;14.27;57.01
8039;BME280;4062;49.844;8.120;2023-12-14T08:34:11;99079.56;;;14.27;57.14
8039;BME280;4062;49.844;8.120;2023-12-14T08:36:15;99085.81;;;14.26;57.08
8039;BME280;4062;49.844;8.120;2023-12-14T08:38:20;99088.47;;;14.26;57.05
8039;BME280;4062;49.844;8.120;2023-12-14T08:40:21;99099.97;;;14.27;57.07
8039;BME280;4062;49.844;8.120;2023-12-14T08:42:23;99099.09;;;14.26;57.08
8039;BME280;4062;49.844;8.120;2023-12-14T08:44:24;99107.00;;;14.28;56.96
8039;BME280;4062;49.844;8.120;2023-12-14T08:46:26;99115.06;;;14.26;57.02
8039;BME280;4062;49.844;8.120;2023-12-14T08:48:28;99121.22;;;14.27;56.94
8039;BME280;4062;49.844;8.120;2023-12-14T08:50:29;99123.03;;;14.26;57.03
8039;BME280;4062;49.844;8.120;2023-12-14T08:52:30;99123.03;;;14.26;56.96
8039;BME280;4062;49.844;8.120;2023-12-14T08:54:32;99134.50;;;14.27;57.07
8039;BME280;4062;49.844;8.120;2023-12-14T08:56:34;99131.00;;;14.26;57.18
8039;BME280;4062;49.844;8.120;2023-12-14T08:58:36;99141.63;;;14.26;57.11
8039;BME280;4062;49.844;8.120;2023-12-14T09:00:37;99140.69;;;14.27;57.04
8039;BME280;4062;49.844;8.120;2023-12-14T09:02:41;99146.00;;;14.27;57.16
8039;BME280;4062;49.844;8.120;2023-12-14T09:04:42;99151.31;;;14.27;57.07
8039;BME280;4062;49.844;8.120;2023-12-14T09:06:45;99161.06;;;14.27;57.05
8039;BME280;4062;49.844;8.120;2023-12-14T09:08:46;99157.56;;;14.26;57.02
8039;BME280;4062;49.844;8.120;2023-12-14T09:10:47;99161.06;;;14.27;57.01
8039;BME280;4062;49.844;8.120;2023-12-14T09:12:49;99163.72;;;14.27;57.10
8039;BME280;4062;49.844;8.120;2023-12-14T09:14:50;99170.84;;;14.26;57.01
8039;BME280;4062;49.844;8.120;2023-12-14T09:16:51;99176.16;;;14.26;57.07
8039;BME280;4062;49.844;8.120;2023-12-14T09:18:53;99178.75;;;14.28;57.01
8039;BME280;4062;49.844;8.120;2023-12-14T09:20:54;99186.72;;;14.28;57.08
8039;BME280;4062;49.844;8.120;2023-12-14T09:22:55;99192.97;;;14.27;57.02
8039;BME280;4062;49.844;8.120;2023-12-14T09:24:57;99191.19;;;14.27;56.96
8039;BME280;4062;49.844;8.120;2023-12-14T09:26:58;99198.19;;;14.28;57.01
8039;BME280;4062;49.844;8.120;2023-12-14T09:28:59;99205.41;;;14.26;57.01
8039;BME280;4062;49.844;8.120;2023-12-14T09:31:01;99210.63;;;14.28;56.95
8039;BME280;4062;49.844;8.120;2023-12-14T09:33:02;99207.13;;;14.27;56.98
8039;BME280;4062;49.844;8.120;2023-12-14T09:35:04;99202.66;;;14.28;57.01
8039;BME280;4062;49.844;8.120;2023-12-14T09:37:05;99215.94;;;14.28;57.07
8039;BME280;4062;49.844;8.120;2023-12-14T09:39:07;99217.75;;;14.27;57.04
8039;BME280;4062;49.844;8.120;2023-12-14T09:41:11;99217.75;;;14.27;57.09
8039;BME280;4062;49.844;8.120;2023-12-14T09:43:12;99221.25;;;14.28;57.08
8039;BME280;4062;49.844;8.120;2023-12-14T09:45:17;99223.91;;;14.28;57.10
8039;BME280;4062;49.844;8.120;2023-12-14T09:47:18;99229.25;;;14.28;57.07
8039;BME280;4062;49.844;8.120;2023-12-14T09:49:21;99231.91;;;14.28;57.06
8039;BME280;4062;49.844;8.120;2023-12-14T09:51:24;99229.25;;;14.28;57.07
8039;BME280;4062;49.844;8.120;2023-12-14T09:53:28;99236.34;;;14.27;57.02
8039;BME280;4062;49.844;8.120;2023-12-14T09:55:29;99245.19;;;14.28;56.97
8039;BME280;4062;49.844;8.120;2023-12-14T09:57:32;99247.00;;;14.27;57.07
8039;BME280;4062;49.844;8.120;2023-12-14T09:59:33;99246.03;;;14.28;56.95
8039;BME280;4062;49.844;8.120;2023-12-14T10:01:35;99248.69;;;14.28;57.04
8039;BME280;4062;49.844;8.120;2023-12-14T10:03:36;99258.47;;;14.28;57.01
8039;BME280;4062;49.844;8.120;2023-12-14T10:05:37;99255.81;;;14.28;57.06
8039;BME280;4062;49.844;8.120;2023-12-14T10:07:42;99254.97;;;14.27;57.07
8039;BME280;4062;49.844;8.120;2023-12-14T10:09:48;99264.63;;;14.28;57.00
8039;BME280;4062;49.844;8.120;2023-12-14T10:12:03;99264.63;;;14.28;56.90
8039;BME280;4062;49.844;8.120;2023-12-14T10:14:25;99263.78;;;14.28;57.03
8039;BME280;4062;49.844;8.120;2023-12-14T10:16:33;99268.19;;;14.29;57.15
8039;BME280;4062;49.844;8.120;2023-12-14T10:18:34;99265.59;;;14.27;56.90
8039;BME280;4062;49.844;8.120;2023-12-14T10:20:36;99271.75;;;14.28;57.01
8039;BME280;4062;49.844;8.120;2023-12-14T10:22:38;99268.25;;;14.27;57.04
8039;BME280;4062;49.844;8.120;2023-12-14T10:24:40;99275.25;;;14.28;57.07
8039;BME280;4062;49.844;8.120;2023-12-14T10:26:47;99269.94;;;14.28;57.19
8039;BME280;4062;49.844;8.120;2023-12-14T10:28:49;99273.56;;;14.27;57.03
8039;BME280;4062;49.844;8.120;2023-12-14T10:30:51;99278.88;;;14.27;57.08
8039;BME280;4062;49.844;8.120;2023-12-14T10:32:53;99278.88;;;14.27;57.04
8039;BME280;4062;49.844;8.120;2023-12-14T10:34:55;99274.41;;;14.28;57.15
8039;BME280;4062;49.844;8.120;2023-12-14T10:36:56;99285.03;;;14.28;57.12
8039;BME280;4062;49.844;8.120;2023-12-14T10:38:59;99287.78;;;14.26;56.91
8039;BME280;4062;49.844;8.120;2023-12-14T10:41:01;99289.50;;;14.27;56.97
8039;BME280;4062;49.844;8.120;2023-12-14T10:43:04;99289.50;;;14.27;57.14
8039;BME280;4062;49.844;8.120;2023-12-14T10:45:06;99297.47;;;14.27;56.97
8039;BME280;4062;49.844;8.120;2023-12-14T10:47:09;99300.13;;;14.27;57.11
8039;BME280;4062;49.844;8.120;2023-12-14T10:49:11;99293.00;;;14.28;56.87
8039;BME280;4062;49.844;8.120;2023-12-14T10:51:13;99297.47;;;14.27;56.90
8039;BME280;4062;49.844;8.120;2023-12-14T10:53:16;99297.47;;;14.27;57.02
8039;BME280;4062;49.844;8.120;2023-12-14T10:57:37;99302.78;;;14.27;56.95
8039;BME280;4062;49.844;8.120;2023-12-14T10:59:39;99309.88;;;14.27;57.07
8039;BME280;4062;49.844;8.120;2023-12-14T11:01:42;99314.28;;;14.28;57.09
8039;BME280;4062;49.844;8.120;2023-12-14T11:03:44;99316.09;;;14.27;57.01
8039;BME280;4062;49.844;8.120;2023-12-14T11:05:45;99316.94;;;14.28;57.01
8039;BME280;4062;49.844;8.120;2023-12-14T11:07:52;99326.72;;;14.27;56.97